Time;durP1;ratioP1;P1;durP2;ratioP2;P2;SDS_P1;SDS_P2;PMS_P1;PMS_P2;Temp;Humidity;BMP_temperature;BMP_pressure;BME280_temperature;BME280_humidity;BME280_pressure;Samples;Min_cycle;Max_cycle;Signal;HPM_P1;HPM_P2
2022/08/15 00:03:31;;;;;;;1.80;1.10;;;23.60;82.80;;;;;;6734102;88;20305;-80
2022/08/15 00:13:32;;;;;;;1.50;1.10;;;23.40;82.00;;;;;;6732130;88;20782;-81
2022/08/15 00:23:33;;;;;;;2.08;1.23;;;23.40;79.70;;;;;;6716904;88;20206;-80
2022/08/15 00:33:33;;;;;;;1.77;1.02;;;23.50;80.70;;;;;;6732803;88;20748;-81
2022/08/15 00:43:36;;;;;;;1.47;1.00;;;23.70;78.10;;;;;;6736598;88;20218;-80
2022/08/15 00:53:38;;;;;;;1.80;0.98;;;23.70;79.00;;;;;;6735452;88;20520;-80
2022/08/15 01:03:44;;;;;;;2.20;1.30;;;23.50;80.60;;;;;;6737678;88;20299;-79
2022/08/15 01:13:46;;;;;;;1.90;1.20;;;23.10;82.20;;;;;;6730733;88;20660;-79
2022/08/15 01:24:00;;;;;;;2.00;1.10;;;23.10;81.20;;;;;;6729485;88;20676;-80
2022/08/15 01:34:00;;;;;;;2.57;1.17;;;23.30;81.00;;;;;;6715993;88;20192;-80
2022/08/15 01:44:17;;;;;;;1.55;1.00;;;23.30;81.00;;;;;;6733225;88;22172;-80
2022/08/15 01:54:20;;;;;;;1.30;0.90;;;23.20;82.00;;;;;;6713441;88;20201;-80
2022/08/15 02:04:29;;;;;;;1.77;1.15;;;22.90;83.20;;;;;;6735753;88;20189;-78
2022/08/15 02:14:33;;;;;;;2.40;0.90;;;22.80;83.70;;;;;;6734421;88;20647;-79
2022/08/15 02:24:34;;;;;;;1.40;0.97;;;23.00;82.10;;;;;;6734848;88;20192;-78
2022/08/15 02:34:35;;;;;;;1.95;1.20;;;23.30;81.60;;;;;;6720700;88;20222;-78
2022/08/15 02:44:36;;;;;;;3.08;1.10;;;23.30;83.10;;;;;;6722937;88;20206;-77
2022/08/15 02:54:37;;;;;;;1.67;0.98;;;23.40;83.00;;;;;;6729003;88;20260;-78
2022/08/15 03:04:38;;;;;;;1.60;1.10;;;23.40;82.70;;;;;;6724261;88;20244;-78
2022/08/15 03:14:39;;;;;;;2.30;1.48;;;23.20;83.20;;;;;;6718821;88;20938;-78
2022/08/15 03:24:42;;;;;;;1.80;1.00;;;23.20;83.90;;;;;;6722266;88;20214;-79
2022/08/15 03:34:42;;;;;;;1.80;1.10;;;23.10;83.60;;;;;;6719928;88;20242;-79
2022/08/15 03:44:43;;;;;;;2.33;1.35;;;23.10;84.20;;;;;;6724469;88;20340;-77
2022/08/15 03:54:43;;;;;;;1.73;1.10;;;23.00;84.80;;;;;;6721144;88;20339;-77
2022/08/15 04:04:44;;;;;;;1.67;1.10;;;22.90;85.00;;;;;;6731494;88;20290;-77
2022/08/15 04:14:45;;;;;;;1.97;1.17;;;22.80;85.80;;;;;;6721231;88;20238;-76
2022/08/15 04:24:46;;;;;;;1.42;1.00;;;22.80;86.40;;;;;;6721114;88;20321;-77
2022/08/15 04:34:46;;;;;;;2.62;1.10;;;22.90;86.50;;;;;;6724292;88;20201;-78
2022/08/15 04:44:48;;;;;;;1.62;0.98;;;23.00;86.70;;;;;;6724632;88;20213;-77
2022/08/15 04:54:49;;;;;;;1.77;1.00;;;23.10;87.10;;;;;;6723295;88;20225;-77
2022/08/15 05:04:50;;;;;;;1.33;0.88;;;23.20;87.20;;;;;;6723125;88;20339;-77
2022/08/15 05:14:50;;;;;;;1.73;1.02;;;23.20;87.80;;;;;;6722941;88;20638;-77
2022/08/15 05:24:51;;;;;;;1.30;0.80;;;23.20;87.80;;;;;;6742104;88;20301;-77
2022/08/15 05:34:52;;;;;;;1.62;0.77;;;23.30;88.30;;;;;;6734986;88;20223;-79
2022/08/15 05:45:06;;;;;;;1.62;0.70;;;23.50;87.20;;;;;;6731113;88;20319;-77
2022/08/15 05:55:25;;;;;;;;;;;23.70;86.70;;;;;;6733277;88;20352;-77
2022/08/15 06:05:34;;;;;;;1.52;0.98;;;23.70;88.60;;;;;;6720001;88;20088;-79
2022/08/15 06:15:54;;;;;;;1.20;0.80;;;23.90;89.00;;;;;;6735957;88;20192;-79
2022/08/15 06:26:19;;;;;;;1.60;1.00;;;24.10;88.90;;;;;;6739641;88;20575;-79
2022/08/15 06:36:43;;;;;;;1.55;1.00;;;24.50;88.60;;;;;;6734323;88;20263;-80
2022/08/15 06:46:45;;;;;;;2.00;1.10;;;25.00;88.20;;;;;;6741134;88;20200;-79
2022/08/15 06:57:08;;;;;;;1.83;1.05;;;24.90;88.00;;;;;;6747580;88;20259;-78
2022/08/15 07:07:33;;;;;;;1.15;0.65;;;24.80;88.50;;;;;;6742706;88;20785;-78
2022/08/15 07:17:42;;;;;;;1.05;0.68;;;24.70;89.90;;;;;;6742718;88;20252;-79
2022/08/15 07:27:57;;;;;;;1.48;0.80;;;24.20;90.90;;;;;;6754785;88;20229;-78
2022/08/15 07:38:01;;;;;;;2.47;0.93;;;24.30;90.70;;;;;;6744801;87;20224;-78
2022/08/15 07:48:05;;;;;;;1.52;0.90;;;24.20;90.90;;;;;;6737447;88;20216;-79
2022/08/15 07:58:16;;;;;;;1.30;0.93;;;24.30;90.70;;;;;;6744234;88;20210;-79
2022/08/15 08:08:19;;;;;;;1.23;0.80;;;24.30;90.70;;;;;;6746222;88;20181;-79
2022/08/15 08:18:50;;;;;;;1.00;0.60;;;24.30;91.10;;;;;;6743496;88;20215;-78
2022/08/15 08:29:10;;;;;;;1.35;0.70;;;24.40;90.80;;;;;;6749518;87;20192;-77
2022/08/15 08:39:32;;;;;;;1.23;0.60;;;24.40;91.30;;;;;;6743398;88;20184;-78
2022/08/15 08:49:52;;;;;;;1.62;0.98;;;24.50;91.20;;;;;;6745661;88;20583;-78
2022/08/15 08:59:59;;;;;;;1.27;0.88;;;24.60;91.60;;;;;;6743409;87;20224;-79
2022/08/15 09:10:05;;;;;;;1.65;0.60;;;24.60;92.00;;;;;;6748792;88;20241;-79
2022/08/15 09:20:10;;;;;;;1.42;0.70;;;24.80;92.10;;;;;;6757896;88;20783;-78
2022/08/15 09:30:12;;;;;;;1.23;0.80;;;24.70;92.20;;;;;;6743570;88;20189;-78
2022/08/15 09:40:38;;;;;;;1.73;0.75;;;25.00;91.70;;;;;;6742990;88;20252;-78
2022/08/15 09:50:58;;;;;;;1.17;0.68;;;24.40;93.30;;;;;;6753332;88;20220;-78
2022/08/15 10:01:03;;;;;;;1.20;0.70;;;23.90;94.80;;;;;;6746643;88;20197;-78
2022/08/15 10:11:12;;;;;;;1.08;0.65;;;23.90;96.10;;;;;;6746389;87;20196;-78
2022/08/15 10:21:20;;;;;;;1.08;0.60;;;23.60;98.20;;;;;;6742745;88;20204;-79
2022/08/15 10:31:25;;;;;;;1.27;0.73;;;23.30;99.90;;;;;;6741811;88;20204;-77
2022/08/15 10:41:45;;;;;;;1.37;0.88;;;22.30;99.90;;;;;;6753072;88;20265;-79
2022/08/15 10:52:16;;;;;;;2.37;0.80;;;21.60;99.90;;;;;;6751138;88;20251;-80
2022/08/15 11:02:41;;;;;;;1.12;0.70;;;21.60;99.90;;;;;;6757800;87;20231;-79
2022/08/15 11:12:43;;;;;;;;;;;21.60;99.90;;;;;;6753699;88;20185;-78
2022/08/15 11:22:57;;;;;;;1.77;1.12;;;21.90;99.90;;;;;;6749511;88;20056;-78
2022/08/15 11:43:03;;;;;;;;;;;23.00;99.90;;;;;;6742231;88;20205;-79
2022/08/15 11:53:09;;;;;;;1.17;0.80;;;23.50;99.90;;;;;;6725926;88;20038;-79
2022/08/15 12:03:23;;;;;;;1.00;0.60;;;23.60;99.90;;;;;;6735682;88;20208;-79
2022/08/15 12:13:24;;;;;;;1.70;0.90;;;24.20;99.90;;;;;;6741309;88;20225;-79
2022/08/15 12:23:28;;;;;;;1.70;0.70;;;25.10;99.90;;;;;;6743093;88;20205;-80
2022/08/15 12:33:31;;;;;;;1.12;0.68;;;25.30;99.90;;;;;;6744182;87;20212;-80
2022/08/15 12:43:34;;;;;;;1.50;0.80;;;25.20;99.90;;;;;;6733013;88;20221;-79
2022/08/15 12:53:38;;;;;;;1.02;0.68;;;26.20;99.90;;;;;;6726099;88;20201;-78
2022/08/15 13:03:42;;;;;;;1.08;0.70;;;27.50;99.90;;;;;;6736305;88;20721;-78
2022/08/15 13:13:43;;;;;;;1.73;0.62;;;29.20;96.50;;;;;;6736099;88;20276;-77
2022/08/15 13:23:43;;;;;;;1.20;0.70;;;28.10;95.90;;;;;;6734737;88;20197;-80
2022/08/15 13:33:46;;;;;;;1.37;0.90;;;29.10;94.50;;;;;;6734737;88;20833;-82
2022/08/15 13:43:49;;;;;;;1.15;0.80;;;28.70;94.40;;;;;;6729609;88;20182;-83
2022/08/15 13:53:49;;;;;;;1.00;0.70;;;28.30;94.40;;;;;;6718716;88;20227;-83
2022/08/15 14:04:00;;;;;;;1.10;0.60;;;27.20;95.90;;;;;;6728450;88;20232;-78
2022/08/15 14:14:04;;;;;;;1.00;0.50;;;26.10;96.20;;;;;;6728225;88;20202;-78
2022/08/15 14:24:05;;;;;;;1.17;0.60;;;25.90;95.90;;;;;;6745350;88;20213;-78
2022/08/15 14:34:07;;;;;;;1.00;0.60;;;26.00;95.60;;;;;;6739560;88;20224;-79
2022/08/15 14:44:08;;;;;;;1.12;0.77;;;25.80;95.70;;;;;;6737804;88;20200;-79
2022/08/15 14:54:12;;;;;;;1.17;0.60;;;25.60;95.90;;;;;;6734851;88;20462;-79
2022/08/15 15:04:14;;;;;;;1.00;0.70;;;26.20;95.50;;;;;;6736116;88;20211;-80
2022/08/15 15:14:17;;;;;;;0.95;0.60;;;27.40;94.30;;;;;;6728243;88;20188;-80
2022/08/15 15:24:17;;;;;;;;;;;27.90;93.00;;;;;;6731099;88;20324;-78
2022/08/15 15:34:17;;;;;;;1.20;0.77;;;28.10;92.80;;;;;;6718487;88;20492;-78
2022/08/15 15:44:24;;;;;;;1.67;0.80;;;27.30;93.80;;;;;;6719158;88;20701;-77
2022/08/15 15:54:25;;;;;;;1.62;0.90;;;27.00;94.90;;;;;;6716393;88;20245;-77
2022/08/15 16:04:25;;;;;;;1.48;1.00;;;27.40;94.80;;;;;;6723396;88;20199;-76
2022/08/15 16:14:31;;;;;;;1.42;0.70;;;28.00;93.70;;;;;;6720312;88;20190;-78
2022/08/15 16:24:59;;;;;;;1.35;0.70;;;27.60;94.00;;;;;;6715225;88;20213;-77
2022/08/15 16:35:13;;;;;;;1.30;0.70;;;27.80;92.80;;;;;;6723922;88;20222;-77
2022/08/15 16:45:23;;;;;;;1.25;0.70;;;27.30;92.90;;;;;;6726312;88;20211;-77
2022/08/15 16:55:49;;;;;;;1.05;0.60;;;26.70;93.30;;;;;;6724876;88;20198;-78
2022/08/15 17:06:19;;;;;;;1.00;0.60;;;26.00;94.50;;;;;;6724513;88;20182;-77
2022/08/15 17:16:59;;;;;;;1.00;0.68;;;26.10;94.70;;;;;;6731878;88;20703;-80
2022/08/15 17:27:08;;;;;;;1.20;0.68;;;26.30;94.80;;;;;;6722087;88;20206;-77
2022/08/15 17:37:09;;;;;;;1.23;0.70;;;26.30;94.60;;;;;;6717036;88;20181;-78
2022/08/15 17:47:25;;;;;;;1.40;1.00;;;27.10;94.50;;;;;;6729290;88;20188;-77
2022/08/15 17:57:31;;;;;;;1.83;1.08;;;27.20;94.60;;;;;;6723400;88;20194;-78
2022/08/15 18:07:34;;;;;;;2.53;0.95;;;25.80;95.70;;;;;;6721440;88;20240;-77
2022/08/15 18:17:35;;;;;;;1.83;1.00;;;25.30;96.30;;;;;;6720419;88;20712;-76
2022/08/15 18:27:40;;;;;;;1.23;0.75;;;25.00;97.10;;;;;;6720297;88;20195;-79
2022/08/15 18:38:01;;;;;;;1.10;0.75;;;24.80;98.20;;;;;;6721632;88;20397;-78
2022/08/15 18:48:16;;;;;;;1.50;0.80;;;24.60;99.50;;;;;;6721326;88;20214;-77
2022/08/15 18:58:17;;;;;;;1.80;0.90;;;24.40;99.90;;;;;;6715086;88;20321;-78
2022/08/15 19:08:24;;;;;;;1.52;1.00;;;24.30;99.90;;;;;;6722601;88;20205;-79
2022/08/15 19:18:30;;;;;;;2.83;0.88;;;23.90;99.90;;;;;;6727088;88;20174;-79
2022/08/15 19:29:35;;;;;;;1.77;1.17;;;23.60;99.90;;;;;;6723680;88;20708;-81
2022/08/15 19:40:11;;;;;;;1.52;1.00;;;23.60;99.90;;;;;;6699464;88;20191;-78
2022/08/15 20:00:47;;;;;;;1.58;1.00;;;23.00;99.90;;;;;;6714572;88;20186;-78
2022/08/15 20:11:02;;;;;;;1.77;1.10;;;22.70;99.90;;;;;;6711478;88;20579;-78
2022/08/15 20:21:19;;;;;;;1.70;0.90;;;22.50;99.90;;;;;;6712830;88;20233;-77
2022/08/15 20:31:39;;;;;;;1.70;1.05;;;22.40;99.90;;;;;;6714287;88;22480;-77
2022/08/15 20:41:57;;;;;;;3.12;1.00;;;22.20;99.90;;;;;;6717410;88;20218;-78
2022/08/15 20:52:05;;;;;;;2.08;1.30;;;22.10;99.90;;;;;;6719798;88;20256;-77
2022/08/15 21:02:24;;;;;;;1.50;1.00;;;22.00;99.90;;;;;;6720435;88;20199;-77
2022/08/15 21:12:54;;;;;;;1.30;0.70;;;21.90;99.90;;;;;;6717376;88;20704;-77
2022/08/15 21:23:20;;;;;;;1.23;0.75;;;21.90;99.90;;;;;;6718687;88;20214;-77
2022/08/15 21:33:39;;;;;;;1.70;0.98;;;21.60;99.90;;;;;;6709668;88;20327;-77
2022/08/15 21:44:02;;;;;;;1.50;0.73;;;21.60;99.90;;;;;;6729860;88;20365;-77
2022/08/15 21:54:14;;;;;;;1.30;0.77;;;21.50;99.90;;;;;;6713952;88;20372;-77
2022/08/15 22:04:26;;;;;;;1.35;0.82;;;21.10;99.90;;;;;;6714964;88;20211;-77
2022/08/15 22:14:27;;;;;;;1.33;0.80;;;21.10;99.90;;;;;;6719714;88;20203;-77
2022/08/15 22:24:28;;;;;;;2.00;0.80;;;21.00;99.90;;;;;;6724449;88;20248;-78
2022/08/15 22:34:29;;;;;;;1.33;0.88;;;21.00;99.90;;;;;;6711097;88;20353;-77
2022/08/15 22:44:34;;;;;;;1.80;0.82;;;21.00;99.90;;;;;;6718291;88;20540;-78
2022/08/15 22:54:36;;;;;;;1.48;0.88;;;20.90;99.90;;;;;;6720937;88;20219;-77
2022/08/15 23:05:05;;;;;;;1.12;0.70;;;20.80;99.90;;;;;;6718021;88;20210;-76
2022/08/15 23:15:28;;;;;;;1.23;0.62;;;20.80;99.90;;;;;;6701578;88;20216;-76
2022/08/15 23:25:30;;;;;;;1.12;0.60;;;20.70;99.90;;;;;;6716865;88;20208;-77
2022/08/15 23:35:34;;;;;;;1.30;0.60;;;20.60;99.90;;;;;;6719117;88;20190;-76
2022/08/15 23:45:38;;;;;;;1.40;0.80;;;20.70;99.90;;;;;;6733174;77;22192;-78
2022/08/15 23:55:42;;;;;;;1.10;0.57;;;20.60;99.90;;;;;;6729162;88;20352;-79
